sensor_id;sensor_type;location;lat;lon;timestamp;temperature;humidity
66670;DHT22;53568;52.164;4.472;2023-04-05T00:01:30;7.05;65.63
66670;DHT22;53568;52.164;4.472;2023-04-05T00:03:57;6.96;65.94
66670;DHT22;53568;52.164;4.472;2023-04-05T00:06:24;7.05;65.89
66670;DHT22;53568;52.164;4.472;2023-04-05T00:09:01;7.09;65.98
66670;DHT22;53568;52.164;4.472;2023-04-05T00:11:30;7.05;65.78
66670;DHT22;53568;52.164;4.472;2023-04-05T00:13:59;7.16;65.64
66670;DHT22;53568;52.164;4.472;2023-04-05T00:16:26;7.20;65.59
66670;DHT22;53568;52.164;4.472;2023-04-05T00:18:55;7.16;65.64
66670;DHT22;53568;52.164;4.472;2023-04-05T00:21:23;7.09;65.87
66670;DHT22;53568;52.164;4.472;2023-04-05T00:23:53;7.17;65.89
66670;DHT22;53568;52.164;4.472;2023-04-05T00:26:20;7.29;65.44
66670;DHT22;53568;52.164;4.472;2023-04-05T00:28:49;7.30;65.40
66670;DHT22;53568;52.164;4.472;2023-04-05T00:31:15;7.36;64.89
66670;DHT22;53568;52.164;4.472;2023-04-05T00:33:42;7.17;65.49
66670;DHT22;53568;52.164;4.472;2023-04-05T00:36:12;7.27;65.26
66670;DHT22;53568;52.164;4.472;2023-04-05T00:38:39;7.26;65.26
66670;DHT22;53568;52.164;4.472;2023-04-05T00:41:05;7.37;64.24
66670;DHT22;53568;52.164;4.472;2023-04-05T00:43:31;7.39;64.17
66670;DHT22;53568;52.164;4.472;2023-04-05T00:45:56;7.37;63.88
66670;DHT22;53568;52.164;4.472;2023-04-05T00:48:22;7.27;64.48
66670;DHT22;53568;52.164;4.472;2023-04-05T00:50:49;7.46;63.96
66670;DHT22;53568;52.164;4.472;2023-04-05T00:53:18;7.49;63.75
66670;DHT22;53568;52.164;4.472;2023-04-05T00:55:45;7.46;63.39
66670;DHT22;53568;52.164;4.472;2023-04-05T00:58:13;7.29;63.74
66670;DHT22;53568;52.164;4.472;2023-04-05T01:00:39;7.30;62.65
66670;DHT22;53568;52.164;4.472;2023-04-05T01:03:08;7.24;63.05
66670;DHT22;53568;52.164;4.472;2023-04-05T01:05:46;7.34;62.93
66670;DHT22;53568;52.164;4.472;2023-04-05T01:08:27;7.42;62.23
66670;DHT22;53568;52.164;4.472;2023-04-05T01:11:01;7.37;61.17
66670;DHT22;53568;52.164;4.472;2023-04-05T01:13:31;7.33;61.19
66670;DHT22;53568;52.164;4.472;2023-04-05T01:15:56;7.27;61.35
66670;DHT22;53568;52.164;4.472;2023-04-05T01:18:22;7.33;61.45
66670;DHT22;53568;52.164;4.472;2023-04-05T01:21:06;7.39;60.46
66670;DHT22;53568;52.164;4.472;2023-04-05T01:24:14;7.44;60.20
66670;DHT22;53568;52.164;4.472;2023-04-05T01:29:44;7.31;61.06
66670;DHT22;53568;52.164;4.472;2023-04-05T01:35:04;7.34;60.83
66670;DHT22;53568;52.164;4.472;2023-04-05T01:37:33;7.34;60.81
66670;DHT22;53568;52.164;4.472;2023-04-05T01:40:00;7.29;60.83
66670;DHT22;53568;52.164;4.472;2023-04-05T01:42:26;7.34;60.65
66670;DHT22;53568;52.164;4.472;2023-04-05T01:44:53;7.33;60.67
66670;DHT22;53568;52.164;4.472;2023-04-05T01:47:19;7.34;60.70
66670;DHT22;53568;52.164;4.472;2023-04-05T01:49:45;7.34;60.52
66670;DHT22;53568;52.164;4.472;2023-04-05T01:52:11;7.34;60.56
66670;DHT22;53568;52.164;4.472;2023-04-05T01:54:37;7.31;60.28
66670;DHT22;53568;52.164;4.472;2023-04-05T01:57:03;7.27;60.49
66670;DHT22;53568;52.164;4.472;2023-04-05T01:59:29;7.15;60.74
66670;DHT22;53568;52.164;4.472;2023-04-05T02:01:54;7.09;60.94
66670;DHT22;53568;52.164;4.472;2023-04-05T02:04:20;7.05;61.21
66670;DHT22;53568;52.164;4.472;2023-04-05T02:06:45;6.99;61.38
66670;DHT22;53568;52.164;4.472;2023-04-05T02:09:11;6.99;61.39
66670;DHT22;53568;52.164;4.472;2023-04-05T02:11:36;6.91;61.42
66670;DHT22;53568;52.164;4.472;2023-04-05T02:14:02;6.86;61.56
66670;DHT22;53568;52.164;4.472;2023-04-05T02:16:28;6.82;61.61
66670;DHT22;53568;52.164;4.472;2023-04-05T02:18:57;6.81;61.57
66670;DHT22;53568;52.164;4.472;2023-04-05T02:21:24;6.74;61.90
66670;DHT22;53568;52.164;4.472;2023-04-05T02:23:51;6.78;61.71
66670;DHT22;53568;52.164;4.472;2023-04-05T02:26:16;6.75;61.74
66670;DHT22;53568;52.164;4.472;2023-04-05T02:28:42;6.74;61.70
66670;DHT22;53568;52.164;4.472;2023-04-05T02:31:11;6.74;61.74
66670;DHT22;53568;52.164;4.472;2023-04-05T02:33:37;6.71;61.84
66670;DHT22;53568;52.164;4.472;2023-04-05T02:36:04;6.69;61.80
66670;DHT22;53568;52.164;4.472;2023-04-05T02:38:34;6.68;61.84
66670;DHT22;53568;52.164;4.472;2023-04-05T02:41:01;6.72;61.77
66670;DHT22;53568;52.164;4.472;2023-04-05T02:43:27;6.71;61.92
66670;DHT22;53568;52.164;4.472;2023-04-05T02:45:53;6.67;62.00
66670;DHT22;53568;52.164;4.472;2023-04-05T02:48:19;6.68;61.96
66670;DHT22;53568;52.164;4.472;2023-04-05T02:50:49;6.65;61.94
66670;DHT22;53568;52.164;4.472;2023-04-05T02:53:18;6.62;62.08
66670;DHT22;53568;52.164;4.472;2023-04-05T02:55:53;6.67;62.09
66670;DHT22;53568;52.164;4.472;2023-04-05T02:58:19;6.68;62.10
66670;DHT22;53568;52.164;4.472;2023-04-05T03:00:46;6.71;61.94
66670;DHT22;53568;52.164;4.472;2023-04-05T03:03:20;6.69;61.97
66670;DHT22;53568;52.164;4.472;2023-04-05T03:05:46;6.72;61.65
66670;DHT22;53568;52.164;4.472;2023-04-05T03:08:15;6.75;61.66
66670;DHT22;53568;52.164;4.472;2023-04-05T03:10:45;6.74;61.64
66670;DHT22;53568;52.164;4.472;2023-04-05T03:13:12;6.68;61.77
66670;DHT22;53568;52.164;4.472;2023-04-05T03:15:38;6.68;61.85
66670;DHT22;53568;52.164;4.472;2023-04-05T03:18:03;6.64;61.91
66670;DHT22;53568;52.164;4.472;2023-04-05T03:20:29;6.68;61.80
66670;DHT22;53568;52.164;4.472;2023-04-05T03:22:54;6.62;62.05
66670;DHT22;53568;52.164;4.472;2023-04-05T03:25:20;6.62;61.86
66670;DHT22;53568;52.164;4.472;2023-04-05T03:27:46;6.51;62.38
66670;DHT22;53568;52.164;4.472;2023-04-05T03:30:11;6.52;62.46
66670;DHT22;53568;52.164;4.472;2023-04-05T03:32:37;6.54;62.27
66670;DHT22;53568;52.164;4.472;2023-04-05T03:35:03;6.52;62.38
66670;DHT22;53568;52.164;4.472;2023-04-05T03:37:28;6.56;62.37
66670;DHT22;53568;52.164;4.472;2023-04-05T03:39:55;6.55;62.29
66670;DHT22;53568;52.164;4.472;2023-04-05T03:42:20;6.49;62.28
66670;DHT22;53568;52.164;4.472;2023-04-05T03:44:51;6.46;62.15
66670;DHT22;53568;52.164;4.472;2023-04-05T03:47:17;6.44;62.43
66670;DHT22;53568;52.164;4.472;2023-04-05T03:49:42;6.44;62.51
66670;DHT22;53568;52.164;4.472;2023-04-05T03:52:08;6.52;62.25
66670;DHT22;53568;52.164;4.472;2023-04-05T03:54:34;6.49;62.13
66670;DHT22;53568;52.164;4.472;2023-04-05T03:56:59;6.51;62.08
66670;DHT22;53568;52.164;4.472;2023-04-05T03:59:25;6.51;62.07
66670;DHT22;53568;52.164;4.472;2023-04-05T04:01:52;6.54;62.17
66670;DHT22;53568;52.164;4.472;2023-04-05T04:04:17;6.55;62.11
66670;DHT22;53568;52.164;4.472;2023-04-05T04:06:43;6.54;62.28
66670;DHT22;53568;52.164;4.472;2023-04-05T04:09:08;6.51;62.42
66670;DHT22;53568;52.164;4.472;2023-04-05T04:11:34;6.46;62.68
66670;DHT22;53568;52.164;4.472;2023-04-05T04:13:59;6.37;62.86
66670;DHT22;53568;52.164;4.472;2023-04-05T04:16:25;6.31;63.04
66670;DHT22;53568;52.164;4.472;2023-04-05T04:18:50;6.30;63.13
66670;DHT22;53568;52.164;4.472;2023-04-05T04:21:19;6.24;63.41
66670;DHT22;53568;52.164;4.472;2023-04-05T04:23:52;6.22;63.45
66670;DHT22;53568;52.164;4.472;2023-04-05T04:26:17;6.17;63.40
66670;DHT22;53568;52.164;4.472;2023-04-05T04:28:54;6.17;63.48
66670;DHT22;53568;52.164;4.472;2023-04-05T04:31:19;6.11;63.60
66670;DHT22;53568;52.164;4.472;2023-04-05T04:33:48;6.16;63.39
66670;DHT22;53568;52.164;4.472;2023-04-05T04:36:14;6.13;63.60
66670;DHT22;53568;52.164;4.472;2023-04-05T04:38:42;6.14;63.58
66670;DHT22;53568;52.164;4.472;2023-04-05T04:41:12;6.18;63.29
66670;DHT22;53568;52.164;4.472;2023-04-05T04:43:38;6.16;63.31
66670;DHT22;53568;52.164;4.472;2023-04-05T04:46:08;6.17;63.15
66670;DHT22;53568;52.164;4.472;2023-04-05T04:48:40;6.13;63.12
66670;DHT22;53568;52.164;4.472;2023-04-05T04:51:06;6.06;63.28
66670;DHT22;53568;52.164;4.472;2023-04-05T04:53:32;6.06;63.10
66670;DHT22;53568;52.164;4.472;2023-04-05T04:55:57;6.03;63.28
66670;DHT22;53568;52.164;4.472;2023-04-05T04:58:23;6.04;63.24
66670;DHT22;53568;52.164;4.472;2023-04-05T05:00:49;6.04;62.94
66670;DHT22;53568;52.164;4.472;2023-04-05T05:03:17;6.03;62.91
66670;DHT22;53568;52.164;4.472;2023-04-05T05:05:49;6.03;62.75
66670;DHT22;53568;52.164;4.472;2023-04-05T05:08:15;6.08;62.60
66670;DHT22;53568;52.164;4.472;2023-04-05T05:10:41;6.08;62.52
66670;DHT22;53568;52.164;4.472;2023-04-05T05:13:07;6.08;62.41
66670;DHT22;53568;52.164;4.472;2023-04-05T05:15:33;6.14;62.17
66670;DHT22;53568;52.164;4.472;2023-04-05T05:17:59;6.16;62.22
66670;DHT22;53568;52.164;4.472;2023-04-05T05:20:24;6.16;62.06
66670;DHT22;53568;52.164;4.472;2023-04-05T05:22:57;6.14;62.07
66670;DHT22;53568;52.164;4.472;2023-04-05T05:25:25;6.21;61.88
66670;DHT22;53568;52.164;4.472;2023-04-05T05:27:51;6.22;62.05
66670;DHT22;53568;52.164;4.472;2023-04-05T05:30:17;6.25;62.03
66670;DHT22;53568;52.164;4.472;2023-04-05T05:32:43;6.27;62.10
66670;DHT22;53568;52.164;4.472;2023-04-05T05:35:09;6.31;62.24
66670;DHT22;53568;52.164;4.472;2023-04-05T05:37:34;6.37;62.09
66670;DHT22;53568;52.164;4.472;2023-04-05T05:40:02;6.44;61.90
66670;DHT22;53568;52.164;4.472;2023-04-05T05:42:29;6.46;61.71
66670;DHT22;53568;52.164;4.472;2023-04-05T05:45:00;6.51;61.74
66670;DHT22;53568;52.164;4.472;2023-04-05T05:47:26;6.59;61.51
66670;DHT22;53568;52.164;4.472;2023-04-05T05:49:51;6.64;61.48
66670;DHT22;53568;52.164;4.472;2023-04-05T05:52:17;6.64;61.42
66670;DHT22;53568;52.164;4.472;2023-04-05T05:54:42;6.62;61.49
66670;DHT22;53568;52.164;4.472;2023-04-05T05:57:08;6.69;61.25
66670;DHT22;53568;52.164;4.472;2023-04-05T05:59:33;6.69;61.16
66670;DHT22;53568;52.164;4.472;2023-04-05T06:01:59;6.78;60.99
66670;DHT22;53568;52.164;4.472;2023-04-05T06:04:24;6.81;60.77
66670;DHT22;53568;52.164;4.472;2023-04-05T06:06:50;6.82;60.67
66670;DHT22;53568;52.164;4.472;2023-04-05T06:09:19;6.79;60.81
66670;DHT22;53568;52.164;4.472;2023-04-05T06:11:45;6.84;60.80
66670;DHT22;53568;52.164;4.472;2023-04-05T06:14:11;6.91;60.24
66670;DHT22;53568;52.164;4.472;2023-04-05T06:16:37;6.88;60.13
66670;DHT22;53568;52.164;4.472;2023-04-05T06:19:02;6.79;60.50
66670;DHT22;53568;52.164;4.472;2023-04-05T06:21:28;6.78;60.76
66670;DHT22;53568;52.164;4.472;2023-04-05T06:23:53;6.86;60.53
66670;DHT22;53568;52.164;4.472;2023-04-05T06:26:21;6.95;60.14
66670;DHT22;53568;52.164;4.472;2023-04-05T06:28:49;6.93;59.97
66670;DHT22;53568;52.164;4.472;2023-04-05T06:31:15;6.85;59.98
66670;DHT22;53568;52.164;4.472;2023-04-05T06:33:42;6.72;60.19
66670;DHT22;53568;52.164;4.472;2023-04-05T06:36:09;6.78;59.82
66670;DHT22;53568;52.164;4.472;2023-04-05T06:38:35;6.89;59.60
66670;DHT22;53568;52.164;4.472;2023-04-05T06:41:01;6.88;59.58
66670;DHT22;53568;52.164;4.472;2023-04-05T06:43:27;6.88;59.76
66670;DHT22;53568;52.164;4.472;2023-04-05T06:45:56;7.00;59.35
66670;DHT22;53568;52.164;4.472;2023-04-05T06:48:22;7.17;58.49
66670;DHT22;53568;52.164;4.472;2023-04-05T06:50:58;7.24;58.07
66670;DHT22;53568;52.164;4.472;2023-04-05T06:53:25;7.33;57.79
66670;DHT22;53568;52.164;4.472;2023-04-05T06:55:57;7.44;57.56
66670;DHT22;53568;52.164;4.472;2023-04-05T06:58:23;7.51;57.22
66670;DHT22;53568;52.164;4.472;2023-04-05T07:00:50;7.51;56.42
66670;DHT22;53568;52.164;4.472;2023-04-05T07:03:16;7.47;56.27
66670;DHT22;53568;52.164;4.472;2023-04-05T07:05:56;7.57;56.25
66670;DHT22;53568;52.164;4.472;2023-04-05T07:08:24;7.57;56.29
66670;DHT22;53568;52.164;4.472;2023-04-05T07:10:50;7.63;56.13
66670;DHT22;53568;52.164;4.472;2023-04-05T07:13:17;7.75;55.80
66670;DHT22;53568;52.164;4.472;2023-04-05T07:15:44;7.70;55.75
66670;DHT22;53568;52.164;4.472;2023-04-05T07:18:10;7.69;56.20
66670;DHT22;53568;52.164;4.472;2023-04-05T07:20:36;7.67;56.41
66670;DHT22;53568;52.164;4.472;2023-04-05T07:23:02;7.61;56.34
66670;DHT22;53568;52.164;4.472;2023-04-05T07:25:28;7.74;56.29
66670;DHT22;53568;52.164;4.472;2023-04-05T07:27:53;7.83;55.41
66670;DHT22;53568;52.164;4.472;2023-04-05T07:30:19;7.69;55.00
66670;DHT22;53568;52.164;4.472;2023-04-05T07:32:44;7.85;54.58
66670;DHT22;53568;52.164;4.472;2023-04-05T07:35:10;7.94;54.97
66670;DHT22;53568;52.164;4.472;2023-04-05T07:37:36;7.91;55.40
66670;DHT22;53568;52.164;4.472;2023-04-05T07:40:02;7.97;54.83
66670;DHT22;53568;52.164;4.472;2023-04-05T07:42:30;8.20;54.42
66670;DHT22;53568;52.164;4.472;2023-04-05T07:44:56;8.15;54.05
66670;DHT22;53568;52.164;4.472;2023-04-05T07:47:22;8.34;53.71
66670;DHT22;53568;52.164;4.472;2023-04-05T07:49:48;8.18;54.12
66670;DHT22;53568;52.164;4.472;2023-04-05T07:52:13;8.20;54.09
66670;DHT22;53568;52.164;4.472;2023-04-05T07:54:39;8.25;53.55
66670;DHT22;53568;52.164;4.472;2023-04-05T07:57:07;8.41;52.94
66670;DHT22;53568;52.164;4.472;2023-04-05T07:59:33;8.45;52.73
66670;DHT22;53568;52.164;4.472;2023-04-05T08:01:59;8.45;52.78
66670;DHT22;53568;52.164;4.472;2023-04-05T08:04:24;8.48;52.78
66670;DHT22;53568;52.164;4.472;2023-04-05T08:06:50;8.58;52.90
66670;DHT22;53568;52.164;4.472;2023-04-05T08:09:16;8.69;53.04
66670;DHT22;53568;52.164;4.472;2023-04-05T08:11:42;8.85;52.51
66670;DHT22;53568;52.164;4.472;2023-04-05T08:14:09;9.10;52.37
66670;DHT22;53568;52.164;4.472;2023-04-05T08:16:35;9.22;52.09
66670;DHT22;53568;52.164;4.472;2023-04-05T08:19:00;9.26;51.77
66670;DHT22;53568;52.164;4.472;2023-04-05T08:21:26;9.28;52.02
66670;DHT22;53568;52.164;4.472;2023-04-05T08:23:52;9.27;52.77
66670;DHT22;53568;52.164;4.472;2023-04-05T08:26:17;9.47;52.32
66670;DHT22;53568;52.164;4.472;2023-04-05T08:28:43;9.51;52.14
66670;DHT22;53568;52.164;4.472;2023-04-05T08:31:09;9.54;51.84
66670;DHT22;53568;52.164;4.472;2023-04-05T08:33:34;9.50;51.29
66670;DHT22;53568;52.164;4.472;2023-04-05T08:36:08;9.65;51.07
66670;DHT22;53568;52.164;4.472;2023-04-05T08:38:33;9.78;50.19
66670;DHT22;53568;52.164;4.472;2023-04-05T08:41:10;9.82;50.47
66670;DHT22;53568;52.164;4.472;2023-04-05T08:44:00;9.91;50.04
66670;DHT22;53568;52.164;4.472;2023-04-05T08:46:32;9.98;49.84
66670;DHT22;53568;52.164;4.472;2023-04-05T08:48:58;10.09;50.02
66670;DHT22;53568;52.164;4.472;2023-04-05T08:51:25;10.04;50.48
66670;DHT22;53568;52.164;4.472;2023-04-05T08:53:52;10.16;50.22
66670;DHT22;53568;52.164;4.472;2023-04-05T08:56:26;10.31;49.76
66670;DHT22;53568;52.164;4.472;2023-04-05T08:59:03;10.28;49.56
66670;DHT22;53568;52.164;4.472;2023-04-05T09:01:31;10.32;49.46
66670;DHT22;53568;52.164;4.472;2023-04-05T09:04:05;10.39;49.13
66670;DHT22;53568;52.164;4.472;2023-04-05T09:06:31;10.39;48.61
66670;DHT22;53568;52.164;4.472;2023-04-05T09:08:57;10.49;48.03
66670;DHT22;53568;52.164;4.472;2023-04-05T09:11:23;10.55;48.17
66670;DHT22;53568;52.164;4.472;2023-04-05T09:13:49;10.59;46.94
66670;DHT22;53568;52.164;4.472;2023-04-05T09:16:15;10.72;46.08
66670;DHT22;53568;52.164;4.472;2023-04-05T09:18:41;10.69;46.62
66670;DHT22;53568;52.164;4.472;2023-04-05T09:21:07;10.73;46.29
66670;DHT22;53568;52.164;4.472;2023-04-05T09:23:35;10.73;45.66
66670;DHT22;53568;52.164;4.472;2023-04-05T09:26:17;10.84;44.00
66670;DHT22;53568;52.164;4.472;2023-04-05T09:28:42;10.73;44.92
66670;DHT22;53568;52.164;4.472;2023-04-05T09:31:08;10.82;44.59
66670;DHT22;53568;52.164;4.472;2023-04-05T09:33:33;10.97;44.67
66670;DHT22;53568;52.164;4.472;2023-04-05T09:36:00;11.13;44.28
66670;DHT22;53568;52.164;4.472;2023-04-05T09:38:42;11.24;42.29
66670;DHT22;53568;52.164;4.472;2023-04-05T09:41:10;10.82;40.18
66670;DHT22;53568;52.164;4.472;2023-04-05T09:43:40;11.04;40.98
66670;DHT22;53568;52.164;4.472;2023-04-05T09:46:34;11.13;38.93
66670;DHT22;53568;52.164;4.472;2023-04-05T09:49:04;10.69;39.60
66670;DHT22;53568;52.164;4.472;2023-04-05T09:51:34;10.76;40.12
66670;DHT22;53568;52.164;4.472;2023-04-05T09:54:05;11.02;40.87
66670;DHT22;53568;52.164;4.472;2023-04-05T09:56:36;11.26;40.39
66670;DHT22;53568;52.164;4.472;2023-04-05T09:59:07;11.28;40.11
66670;DHT22;53568;52.164;4.472;2023-04-05T10:01:35;11.19;40.30
66670;DHT22;53568;52.164;4.472;2023-04-05T10:04:01;11.44;39.48
66670;DHT22;53568;52.164;4.472;2023-04-05T10:06:42;11.37;39.88
66670;DHT22;53568;52.164;4.472;2023-04-05T10:09:10;11.28;41.30
66670;DHT22;53568;52.164;4.472;2023-04-05T10:11:37;11.43;39.59
66670;DHT22;53568;52.164;4.472;2023-04-05T10:14:06;11.48;39.14
66670;DHT22;53568;52.164;4.472;2023-04-05T10:16:36;11.44;39.65
66670;DHT22;53568;52.164;4.472;2023-04-05T10:19:04;11.43;40.22
66670;DHT22;53568;52.164;4.472;2023-04-05T10:21:35;11.47;40.26
66670;DHT22;53568;52.164;4.472;2023-04-05T10:24:29;11.26;40.29
66670;DHT22;53568;52.164;4.472;2023-04-05T10:27:20;11.38;39.62
66670;DHT22;53568;52.164;4.472;2023-04-05T10:30:05;11.60;39.39
66670;DHT22;53568;52.164;4.472;2023-04-05T10:36:04;11.74;38.87
66670;DHT22;53568;52.164;4.472;2023-04-05T10:38:25;11.75;39.30
66670;DHT22;53568;52.164;4.472;2023-04-05T10:40:55;11.90;38.81
66670;DHT22;53568;52.164;4.472;2023-04-05T10:43:24;11.85;38.64
66670;DHT22;53568;52.164;4.472;2023-04-05T10:45:52;11.85;39.10
66670;DHT22;53568;52.164;4.472;2023-04-05T10:48:33;11.98;39.01
66670;DHT22;53568;52.164;4.472;2023-04-05T10:51:01;11.92;39.55
66670;DHT22;53568;52.164;4.472;2023-04-05T10:53:29;11.95;39.46
66670;DHT22;53568;52.164;4.472;2023-04-05T10:55:56;11.99;39.80
66670;DHT22;53568;52.164;4.472;2023-04-05T10:58:24;12.12;39.50
66670;DHT22;53568;52.164;4.472;2023-04-05T11:00:53;12.29;38.94
66670;DHT22;53568;52.164;4.472;2023-04-05T11:11:39;12.39;38.20
66670;DHT22;53568;52.164;4.472;2023-04-05T11:14:34;12.26;38.23
66670;DHT22;53568;52.164;4.472;2023-04-05T11:17:00;12.31;38.62
66670;DHT22;53568;52.164;4.472;2023-04-05T11:19:49;12.46;38.02
66670;DHT22;53568;52.164;4.472;2023-04-05T11:22:27;12.55;38.71
66670;DHT22;53568;52.164;4.472;2023-04-05T11:24:56;12.52;39.15
66670;DHT22;53568;52.164;4.472;2023-04-05T11:27:33;12.73;38.72
66670;DHT22;53568;52.164;4.472;2023-04-05T11:30:03;12.66;38.14
66670;DHT22;53568;52.164;4.472;2023-04-05T11:32:43;12.48;37.77
66670;DHT22;53568;52.164;4.472;2023-04-05T11:35:16;12.67;37.23
66670;DHT22;53568;52.164;4.472;2023-04-05T11:40:34;13.03;37.63
66670;DHT22;53568;52.164;4.472;2023-04-05T11:45:33;13.21;37.12
66670;DHT22;53568;52.164;4.472;2023-04-05T11:48:01;13.21;36.94
66670;DHT22;53568;52.164;4.472;2023-04-05T11:50:29;13.37;36.37
66670;DHT22;53568;52.164;4.472;2023-04-05T11:53:11;13.43;36.00
66670;DHT22;53568;52.164;4.472;2023-04-05T11:55:39;13.28;36.98
66670;DHT22;53568;52.164;4.472;2023-04-05T11:58:14;13.31;37.89
66670;DHT22;53568;52.164;4.472;2023-04-05T12:00:41;13.26;37.65
66670;DHT22;53568;52.164;4.472;2023-04-05T12:03:15;13.11;37.95
66670;DHT22;53568;52.164;4.472;2023-04-05T12:05:51;13.10;38.20
66670;DHT22;53568;52.164;4.472;2023-04-05T12:08:18;13.03;37.65
66670;DHT22;53568;52.164;4.472;2023-04-05T12:10:53;12.96;37.74
66670;DHT22;53568;52.164;4.472;2023-04-05T12:13:31;13.00;37.58
66670;DHT22;53568;52.164;4.472;2023-04-05T12:16:01;13.19;36.54
66670;DHT22;53568;52.164;4.472;2023-04-05T12:18:30;13.41;36.44
66670;DHT22;53568;52.164;4.472;2023-04-05T12:20:56;13.44;36.29
66670;DHT22;53568;52.164;4.472;2023-04-05T12:23:23;13.58;36.15
66670;DHT22;53568;52.164;4.472;2023-04-05T12:25:51;13.53;36.05
66670;DHT22;53568;52.164;4.472;2023-04-05T12:28:17;13.54;37.84
66670;DHT22;53568;52.164;4.472;2023-04-05T12:30:53;13.70;39.05
66670;DHT22;53568;52.164;4.472;2023-04-05T12:33:32;13.73;40.24
66670;DHT22;53568;52.164;4.472;2023-04-05T12:36:04;13.70;41.46
66670;DHT22;53568;52.164;4.472;2023-04-05T12:38:29;13.17;41.74
66670;DHT22;53568;52.164;4.472;2023-04-05T12:40:59;12.76;42.28
66670;DHT22;53568;52.164;4.472;2023-04-05T12:43:25;12.59;42.53
66670;DHT22;53568;52.164;4.472;2023-04-05T12:45:54;12.52;42.85
66670;DHT22;53568;52.164;4.472;2023-04-05T12:48:22;12.65;43.08
66670;DHT22;53568;52.164;4.472;2023-04-05T12:50:50;12.77;42.78
66670;DHT22;53568;52.164;4.472;2023-04-05T12:53:21;12.83;43.03
66670;DHT22;53568;52.164;4.472;2023-04-05T12:55:52;12.77;43.45
66670;DHT22;53568;52.164;4.472;2023-04-05T12:58:19;12.70;43.74
66670;DHT22;53568;52.164;4.472;2023-04-05T13:00:45;12.79;43.18
66670;DHT22;53568;52.164;4.472;2023-04-05T13:03:16;12.86;42.12
66670;DHT22;53568;52.164;4.472;2023-04-05T13:05:45;12.96;43.07
66670;DHT22;53568;52.164;4.472;2023-04-05T13:08:19;12.85;43.42
66670;DHT22;53568;52.164;4.472;2023-04-05T13:10:46;12.80;42.75
66670;DHT22;53568;52.164;4.472;2023-04-05T13:13:14;12.82;42.97
66670;DHT22;53568;52.164;4.472;2023-04-05T13:15:40;12.89;42.96
66670;DHT22;53568;52.164;4.472;2023-04-05T13:18:06;13.03;43.13
66670;DHT22;53568;52.164;4.472;2023-04-05T13:20:31;12.96;42.82
66670;DHT22;53568;52.164;4.472;2023-04-05T13:22:57;12.65;43.26
66670;DHT22;53568;52.164;4.472;2023-04-05T13:25:23;12.52;43.77
66670;DHT22;53568;52.164;4.472;2023-04-05T13:27:49;12.66;44.18
66670;DHT22;53568;52.164;4.472;2023-04-05T13:30:15;12.85;43.82
66670;DHT22;53568;52.164;4.472;2023-04-05T13:32:41;12.93;43.88
66670;DHT22;53568;52.164;4.472;2023-04-05T13:35:07;12.92;43.91
66670;DHT22;53568;52.164;4.472;2023-04-05T13:37:32;12.93;43.72
66670;DHT22;53568;52.164;4.472;2023-04-05T13:39:58;12.99;44.11
66670;DHT22;53568;52.164;4.472;2023-04-05T13:42:24;12.87;44.56
66670;DHT22;53568;52.164;4.472;2023-04-05T13:44:50;12.85;43.98
66670;DHT22;53568;52.164;4.472;2023-04-05T13:47:15;12.85;44.10
66670;DHT22;53568;52.164;4.472;2023-04-05T13:49:42;12.93;43.72
66670;DHT22;53568;52.164;4.472;2023-04-05T13:52:08;13.02;43.66
66670;DHT22;53568;52.164;4.472;2023-04-05T13:54:33;12.93;44.07
66670;DHT22;53568;52.164;4.472;2023-04-05T13:56:59;12.92;44.52
66670;DHT22;53568;52.164;4.472;2023-04-05T13:59:25;12.90;44.44
66670;DHT22;53568;52.164;4.472;2023-04-05T14:01:51;12.76;45.02
66670;DHT22;53568;52.164;4.472;2023-04-05T14:04:17;12.66;44.78
66670;DHT22;53568;52.164;4.472;2023-04-05T14:06:43;12.75;45.03
66670;DHT22;53568;52.164;4.472;2023-04-05T14:09:10;12.75;45.17
66670;DHT22;53568;52.164;4.472;2023-04-05T14:11:36;12.70;44.77
66670;DHT22;53568;52.164;4.472;2023-04-05T14:14:02;12.79;44.23
66670;DHT22;53568;52.164;4.472;2023-04-05T14:16:28;12.90;43.68
66670;DHT22;53568;52.164;4.472;2023-04-05T14:18:53;12.85;44.20
66670;DHT22;53568;52.164;4.472;2023-04-05T14:21:19;12.80;44.67
66670;DHT22;53568;52.164;4.472;2023-04-05T14:23:46;12.63;44.38
66670;DHT22;53568;52.164;4.472;2023-04-05T14:26:12;12.35;44.72
66670;DHT22;53568;52.164;4.472;2023-04-05T14:28:37;12.45;44.55
66670;DHT22;53568;52.164;4.472;2023-04-05T14:31:03;12.33;44.32
66670;DHT22;53568;52.164;4.472;2023-04-05T14:33:28;12.32;44.56
66670;DHT22;53568;52.164;4.472;2023-04-05T14:35:54;12.57;44.56
66670;DHT22;53568;52.164;4.472;2023-04-05T14:38:20;12.69;45.24
66670;DHT22;53568;52.164;4.472;2023-04-05T14:40:45;12.66;45.07
66670;DHT22;53568;52.164;4.472;2023-04-05T14:43:11;12.67;44.61
66670;DHT22;53568;52.164;4.472;2023-04-05T14:45:36;12.76;45.05
66670;DHT22;53568;52.164;4.472;2023-04-05T14:48:02;12.89;44.63
66670;DHT22;53568;52.164;4.472;2023-04-05T14:50:28;12.70;44.94
66670;DHT22;53568;52.164;4.472;2023-04-05T14:53:00;12.59;44.72
66670;DHT22;53568;52.164;4.472;2023-04-05T14:55:26;12.70;44.38
66670;DHT22;53568;52.164;4.472;2023-04-05T14:57:52;12.80;44.14
66670;DHT22;53568;52.164;4.472;2023-04-05T15:00:18;12.73;44.04
66670;DHT22;53568;52.164;4.472;2023-04-05T15:02:44;12.77;43.91
66670;DHT22;53568;52.164;4.472;2023-04-05T15:05:11;12.63;44.32
66670;DHT22;53568;52.164;4.472;2023-04-05T15:07:36;12.65;43.96
66670;DHT22;53568;52.164;4.472;2023-04-05T15:10:02;12.43;45.16
66670;DHT22;53568;52.164;4.472;2023-04-05T15:12:28;12.43;45.53
66670;DHT22;53568;52.164;4.472;2023-04-05T15:14:54;12.50;45.01
66670;DHT22;53568;52.164;4.472;2023-04-05T15:17:20;12.46;45.35
66670;DHT22;53568;52.164;4.472;2023-04-05T15:19:46;12.57;45.29
66670;DHT22;53568;52.164;4.472;2023-04-05T15:22:12;12.45;45.57
66670;DHT22;53568;52.164;4.472;2023-04-05T15:24:39;12.50;44.65
66670;DHT22;53568;52.164;4.472;2023-04-05T15:27:06;12.46;45.23
66670;DHT22;53568;52.164;4.472;2023-04-05T15:29:32;12.38;45.63
66670;DHT22;53568;52.164;4.472;2023-04-05T15:31:58;12.45;45.62
66670;DHT22;53568;52.164;4.472;2023-04-05T15:34:26;12.53;45.63
66670;DHT22;53568;52.164;4.472;2023-04-05T15:36:52;12.59;45.63
66670;DHT22;53568;52.164;4.472;2023-04-05T15:39:19;12.46;45.55
66670;DHT22;53568;52.164;4.472;2023-04-05T15:41:46;12.05;47.63
66670;DHT22;53568;52.164;4.472;2023-04-05T15:44:12;12.11;46.62
66670;DHT22;53568;52.164;4.472;2023-04-05T15:46:38;12.06;47.04
66670;DHT22;53568;52.164;4.472;2023-04-05T15:49:07;12.20;46.56
66670;DHT22;53568;52.164;4.472;2023-04-05T15:51:34;12.32;46.02
66670;DHT22;53568;52.164;4.472;2023-04-05T15:54:01;12.41;46.65
66670;DHT22;53568;52.164;4.472;2023-04-05T15:56:27;12.35;46.15
66670;DHT22;53568;52.164;4.472;2023-04-05T15:58:53;12.41;45.65
66670;DHT22;53568;52.164;4.472;2023-04-05T16:01:20;12.48;45.89
66670;DHT22;53568;52.164;4.472;2023-04-05T16:03:46;12.60;45.87
66670;DHT22;53568;52.164;4.472;2023-04-05T16:06:11;12.52;45.94
66670;DHT22;53568;52.164;4.472;2023-04-05T16:08:37;12.48;46.20